createdAt,value
2023-02-19T00:01:36.398Z,100758.00
2023-02-19T00:04:06.005Z,100758.94
2023-02-19T00:06:34.198Z,100761.91
2023-02-19T00:09:01.497Z,100761.78
2023-02-19T00:11:30.652Z,100762.22
2023-02-19T00:13:58.773Z,100755.69
2023-02-19T00:16:34.992Z,100768.00
2023-02-19T00:19:04.056Z,100770.97
2023-02-19T00:21:31.107Z,100756.50
2023-02-19T00:24:00.904Z,100753.56
2023-02-19T00:26:28.261Z,100749.25
2023-02-19T00:28:56.801Z,100743.47
2023-02-19T00:31:26.393Z,100753.84
2023-02-19T00:33:55.970Z,100744.91
2023-02-19T00:36:23.570Z,100743.38
2023-02-19T00:38:50.717Z,100740.72
2023-02-19T00:41:19.372Z,100743.16
2023-02-19T00:43:49.216Z,100738.94
2023-02-19T00:46:18.230Z,100743.31
2023-02-19T00:48:45.492Z,100742.38
2023-02-19T00:51:12.657Z,100736.19
2023-02-19T00:53:39.961Z,100731.66
2023-02-19T00:56:07.844Z,100738.78
2023-02-19T00:58:35.118Z,100738.88
2023-02-19T01:01:02.382Z,100740.84
2023-02-19T01:03:28.968Z,100734.84
2023-02-19T01:05:55.758Z,100734.91
2023-02-19T01:08:22.322Z,100731.44
2023-02-19T01:10:49.553Z,100727.88
2023-02-19T01:13:17.015Z,100732.28
2023-02-19T01:15:44.037Z,100743.94
2023-02-19T01:18:11.240Z,100736.41
2023-02-19T01:20:40.591Z,100730.31
2023-02-19T01:23:07.662Z,100733.09
2023-02-19T01:25:34.480Z,100728.50
2023-02-19T01:28:01.114Z,100726.75
2023-02-19T01:30:27.851Z,100716.69
2023-02-19T01:32:54.406Z,100726.41
2023-02-19T01:35:21.121Z,100728.09
2023-02-19T01:37:47.776Z,100720.00
2023-02-19T01:40:14.416Z,100733.09
2023-02-19T01:42:43.912Z,100724.94
2023-02-19T01:45:28.418Z,100735.63
2023-02-19T01:48:17.379Z,100735.41
2023-02-19T01:51:04.510Z,100733.88
2023-02-19T01:53:37.052Z,100737.25
2023-02-19T01:56:05.220Z,100756.41
2023-02-19T01:58:34.489Z,100740.00
2023-02-19T02:01:04.423Z,100744.13
2023-02-19T02:03:32.118Z,100740.66
2023-02-19T02:06:07.177Z,100741.16
2023-02-19T02:08:53.033Z,100740.47
2023-02-19T02:11:21.469Z,100751.22
2023-02-19T02:13:49.180Z,100744.75
2023-02-19T02:16:41.572Z,100743.84
2023-02-19T02:19:29.793Z,100749.06
2023-02-19T02:22:23.994Z,100749.56
2023-02-19T02:25:08.974Z,100753.41
2023-02-19T02:28:16.948Z,100749.53
2023-02-19T02:30:57.482Z,100751.41
2023-02-19T02:33:44.364Z,100749.28
2023-02-19T02:36:18.477Z,100739.03
2023-02-19T02:38:47.157Z,100744.00
2023-02-19T02:41:15.804Z,100741.50
2023-02-19T02:43:42.938Z,100754.25
2023-02-19T02:46:12.369Z,100751.81
2023-02-19T02:48:42.241Z,100743.59
2023-02-19T02:51:15.875Z,100732.50
2023-02-19T02:54:08.001Z,100739.41
2023-02-19T02:56:35.675Z,100747.22
2023-02-19T02:59:05.847Z,100750.59
2023-02-19T03:02:12.461Z,100748.78
2023-02-19T03:04:59.081Z,100754.00
2023-02-19T03:07:34.881Z,100743.50
2023-02-19T03:10:02.786Z,100752.56
2023-02-19T03:12:51.761Z,100746.53
2023-02-19T03:15:38.031Z,100755.56
2023-02-19T03:18:27.760Z,100754.44
2023-02-19T03:20:58.194Z,100768.53
2023-02-19T03:23:48.780Z,100759.81
2023-02-19T03:26:19.044Z,100760.38
2023-02-19T03:29:11.280Z,100762.09
2023-02-19T03:31:43.390Z,100772.78
2023-02-19T03:34:14.302Z,100777.38
2023-02-19T03:36:45.793Z,100782.03
2023-02-19T03:39:18.876Z,100780.19
2023-02-19T03:41:48.747Z,100781.63
2023-02-19T03:44:25.002Z,100795.31
2023-02-19T03:47:10.030Z,100801.88
2023-02-19T03:49:43.016Z,100797.44
2023-02-19T03:52:18.697Z,100798.91
2023-02-19T03:54:54.999Z,100803.22
2023-02-19T03:57:45.295Z,100806.03
2023-02-19T04:00:18.136Z,100803.78
2023-02-19T04:02:54.107Z,100819.69
2023-02-19T04:05:26.728Z,100819.97
2023-02-19T04:08:00.459Z,100820.78
2023-02-19T04:10:32.539Z,100824.91
2023-02-19T04:13:06.227Z,100824.91
2023-02-19T04:15:37.046Z,100833.00
2023-02-19T04:18:11.171Z,100843.94
2023-02-19T04:20:42.195Z,100843.94
2023-02-19T04:23:09.356Z,100837.88
2023-02-19T04:25:38.295Z,100843.22
2023-02-19T04:28:05.201Z,100846.84
2023-02-19T04:30:31.891Z,100842.47
2023-02-19T04:32:58.568Z,100849.88
2023-02-19T04:35:25.182Z,100845.13
2023-02-19T04:37:51.798Z,100856.50
2023-02-19T04:40:18.713Z,100857.72
2023-02-19T04:42:45.438Z,100860.75
2023-02-19T04:45:11.995Z,100857.97
2023-02-19T04:47:38.709Z,100861.94
2023-02-19T04:50:05.683Z,100870.44
2023-02-19T04:52:33.249Z,100867.16
2023-02-19T04:54:59.805Z,100870.03
2023-02-19T04:57:26.452Z,100871.38
2023-02-19T04:59:53.402Z,100870.31
2023-02-19T05:02:20.062Z,100882.88
2023-02-19T05:04:46.666Z,100874.09
2023-02-19T05:07:13.585Z,100879.94
2023-02-19T05:09:40.107Z,100874.31
2023-02-19T05:12:06.955Z,100877.63
2023-02-19T05:14:33.664Z,100884.91
2023-02-19T05:17:00.355Z,100890.41
2023-02-19T05:19:27.021Z,100900.72
2023-02-19T05:21:53.658Z,100901.34
2023-02-19T05:24:20.556Z,100906.03
2023-02-19T05:26:48.277Z,100911.34
2023-02-19T05:29:14.794Z,100915.56
2023-02-19T05:31:41.801Z,100915.09
2023-02-19T05:34:08.399Z,100915.53
2023-02-19T05:36:37.026Z,100921.56
2023-02-19T05:39:06.109Z,100918.16
2023-02-19T05:41:32.845Z,100918.25
2023-02-19T05:43:59.604Z,100917.56
2023-02-19T05:46:29.979Z,100934.25
2023-02-19T05:48:58.182Z,100932.34
2023-02-19T05:51:26.451Z,100933.22
2023-02-19T05:53:53.360Z,100933.72
2023-02-19T05:56:26.074Z,100934.72
2023-02-19T05:58:53.819Z,100944.09
2023-02-19T06:01:23.293Z,100948.25
2023-02-19T06:03:50.058Z,100941.34
2023-02-19T06:06:18.962Z,100939.88
2023-02-19T06:08:46.046Z,100942.81
2023-02-19T06:11:12.767Z,100949.59
2023-02-19T06:13:39.472Z,100951.06
2023-02-19T06:16:07.753Z,100949.03
2023-02-19T06:18:35.252Z,100950.09
2023-02-19T06:21:05.741Z,100950.25
2023-02-19T06:23:32.854Z,100962.47
2023-02-19T06:26:15.935Z,100963.19
2023-02-19T06:28:43.980Z,100955.69
2023-02-19T06:31:11.760Z,100956.38
2023-02-19T06:33:42.122Z,100961.09
2023-02-19T06:36:12.903Z,100963.56
2023-02-19T06:38:39.678Z,100975.06
2023-02-19T06:41:07.718Z,100984.44
2023-02-19T06:43:35.028Z,100980.34
2023-02-19T06:46:03.805Z,100993.00
2023-02-19T06:48:31.861Z,100995.72
2023-02-19T06:50:59.143Z,100994.41
2023-02-19T06:53:26.155Z,101006.72
2023-02-19T06:56:29.425Z,101004.41
2023-02-19T06:58:59.767Z,101010.00
2023-02-19T07:01:27.484Z,101011.16
2023-02-19T07:03:54.194Z,101032.59
2023-02-19T07:06:23.197Z,101032.88
2023-02-19T07:08:51.493Z,101042.56
2023-02-19T07:11:18.766Z,101043.81
2023-02-19T07:13:45.704Z,101056.78
2023-02-19T07:16:13.319Z,101051.91
2023-02-19T07:18:40.735Z,101053.88
2023-02-19T07:21:11.053Z,101060.31
2023-02-19T07:23:38.380Z,101051.84
2023-02-19T07:26:08.310Z,101063.72
2023-02-19T07:28:34.821Z,101062.13
2023-02-19T07:31:02.704Z,101068.91
2023-02-19T07:33:30.059Z,101079.47
2023-02-19T07:35:57.068Z,101077.69
2023-02-19T07:38:25.340Z,101073.97
2023-02-19T07:40:53.820Z,101086.25
2023-02-19T07:43:20.523Z,101086.16
2023-02-19T07:45:47.286Z,101091.34
2023-02-19T07:48:14.001Z,101089.56
2023-02-19T07:50:40.781Z,101088.00
2023-02-19T07:53:07.807Z,101088.09
2023-02-19T07:55:34.939Z,101105.78
2023-02-19T07:58:01.606Z,101095.63
2023-02-19T08:00:28.247Z,101099.97
2023-02-19T08:03:00.889Z,101106.03
2023-02-19T08:05:28.823Z,101116.22
2023-02-19T08:07:55.532Z,101132.06
2023-02-19T08:10:41.685Z,101126.22
2023-02-19T08:13:22.319Z,101132.13
2023-02-19T08:16:21.864Z,101131.13
2023-02-19T08:18:51.101Z,101125.19
2023-02-19T08:21:21.120Z,101137.28
2023-02-19T08:23:50.609Z,101124.72
2023-02-19T08:26:18.431Z,101129.28
2023-02-19T08:28:45.198Z,101125.50
2023-02-19T08:31:12.623Z,101138.28
2023-02-19T08:33:39.613Z,101136.06
2023-02-19T08:36:08.339Z,101144.34
2023-02-19T08:38:36.788Z,101140.91
2023-02-19T08:41:08.097Z,101148.22
2023-02-19T08:43:35.810Z,101147.69
2023-02-19T08:46:03.101Z,101143.75
2023-02-19T08:48:29.970Z,101162.09
2023-02-19T08:50:58.915Z,101153.22
2023-02-19T08:53:26.417Z,101158.69
2023-02-19T08:55:53.280Z,101157.25
2023-02-19T08:58:20.106Z,101166.84
2023-02-19T09:00:47.391Z,101174.31
2023-02-19T09:03:13.938Z,101181.31
2023-02-19T09:05:40.953Z,101189.06
2023-02-19T09:08:07.512Z,101183.34
2023-02-19T09:10:34.137Z,101188.09
2023-02-19T09:13:02.400Z,101198.25
2023-02-19T09:15:29.701Z,101201.84
2023-02-19T09:17:56.634Z,101198.97
2023-02-19T09:20:24.293Z,101207.22
2023-02-19T09:22:56.007Z,101211.88
2023-02-19T09:25:22.618Z,101210.44
2023-02-19T09:27:49.082Z,101214.53
2023-02-19T09:30:15.791Z,101214.28
2023-02-19T09:32:42.331Z,101224.13
2023-02-19T09:35:08.871Z,101227.53
2023-02-19T09:37:35.489Z,101224.22
2023-02-19T09:40:02.096Z,101220.81
2023-02-19T09:42:30.949Z,101214.81
2023-02-19T09:44:59.772Z,101228.53
2023-02-19T09:47:29.845Z,101231.97
2023-02-19T09:50:02.566Z,101239.66
2023-02-19T09:52:33.984Z,101245.34
2023-02-19T09:55:15.537Z,101255.19
2023-02-19T09:57:43.597Z,101245.81
2023-02-19T10:00:25.898Z,101270.78
2023-02-19T10:02:55.009Z,101275.41
2023-02-19T10:05:24.413Z,101281.22
2023-02-19T10:07:54.007Z,101287.66
2023-02-19T10:10:35.264Z,101301.75
2023-02-19T10:13:28.029Z,101307.00
2023-02-19T10:15:58.581Z,101286.63
2023-02-19T10:18:28.839Z,101303.56
2023-02-19T10:20:56.792Z,101314.63
2023-02-19T10:23:24.583Z,101311.69
2023-02-19T10:26:01.052Z,101320.72
2023-02-19T10:28:33.821Z,101339.53
2023-02-19T10:31:04.108Z,101341.00
2023-02-19T10:33:30.719Z,101339.03
2023-02-19T10:36:16.061Z,101346.09
2023-02-19T10:38:47.742Z,101342.34
2023-02-19T10:41:17.687Z,101327.03
2023-02-19T10:43:56.443Z,101331.13
2023-02-19T10:46:29.705Z,101337.38
2023-02-19T10:49:03.854Z,101337.09
2023-02-19T10:51:39.539Z,101350.81
2023-02-19T10:54:34.931Z,101351.91
2023-02-19T10:57:20.941Z,101364.34
2023-02-19T10:59:52.843Z,101354.47
2023-02-19T11:02:21.268Z,101350.97
2023-02-19T11:05:17.733Z,101358.50
2023-02-19T11:07:54.821Z,101361.03
2023-02-19T11:10:42.176Z,101370.03
2023-02-19T11:13:16.245Z,101366.03
2023-02-19T11:15:43.704Z,101376.00
2023-02-19T11:18:13.363Z,101371.72
2023-02-19T11:20:54.365Z,101361.03
2023-02-19T11:23:24.868Z,101359.22
2023-02-19T11:25:54.088Z,101366.16
2023-02-19T11:28:43.410Z,101381.09
2023-02-19T11:31:19.291Z,101377.56
2023-02-19T11:33:53.604Z,101370.31
2023-02-19T11:36:23.004Z,101380.97
2023-02-19T11:38:49.688Z,101372.81
2023-02-19T11:41:16.231Z,101363.91
2023-02-19T11:44:16.622Z,101371.09
2023-02-19T11:47:34.473Z,101372.53
2023-02-19T11:50:22.841Z,101368.72
2023-02-19T11:52:56.306Z,101377.78
2023-02-19T11:55:43.132Z,101380.84
2023-02-19T11:58:39.983Z,101382.78
2023-02-19T12:01:22.809Z,101374.63
2023-02-19T12:04:16.745Z,101382.69
2023-02-19T12:07:02.106Z,101395.34
2023-02-19T12:09:53.342Z,101393.91
2023-02-19T12:12:41.684Z,101385.84
2023-02-19T12:15:29.282Z,101399.22
2023-02-19T12:18:34.684Z,101390.84
2023-02-19T12:21:13.331Z,101389.00
2023-02-19T12:23:48.876Z,101383.16
2023-02-19T12:26:30.237Z,101388.81
2023-02-19T12:29:34.486Z,101406.25
2023-02-19T12:32:33.099Z,101409.91
2023-02-19T12:35:02.872Z,101401.28
2023-02-19T12:37:52.724Z,101394.34
2023-02-19T12:40:44.653Z,101396.03
2023-02-19T12:43:18.984Z,101404.06
2023-02-19T12:45:49.324Z,101405.66
2023-02-19T12:48:34.570Z,101409.69
2023-02-19T12:51:10.702Z,101418.88
2023-02-19T12:53:49.340Z,101426.84
2023-02-19T12:56:21.787Z,101421.72
2023-02-19T12:58:53.225Z,101423.28
2023-02-19T13:01:26.223Z,101423.75
2023-02-19T13:04:28.053Z,101423.59
2023-02-19T13:07:05.921Z,101422.72
2023-02-19T13:10:01.908Z,101420.44
2023-02-19T13:12:44.153Z,101422.03
2023-02-19T13:15:32.685Z,101416.34
2023-02-19T13:18:02.709Z,101417.22
2023-02-19T13:20:37.006Z,101417.31
2023-02-19T13:23:41.036Z,101429.25
2023-02-19T13:26:44.805Z,101430.75
2023-02-19T13:29:21.406Z,101437.19
2023-02-19T13:32:14.580Z,101437.50
2023-02-19T13:35:23.627Z,101451.44
2023-02-19T13:37:52.020Z,101450.91
2023-02-19T13:40:24.602Z,101443.72
2023-02-19T13:42:54.924Z,101449.28
2023-02-19T13:45:32.884Z,101452.50
2023-02-19T13:48:12.764Z,101455.44
2023-02-19T13:50:39.591Z,101454.34
2023-02-19T13:53:44.647Z,101460.22
2023-02-19T13:56:29.552Z,101469.13
2023-02-19T13:59:01.591Z,101470.38
2023-02-19T14:01:55.004Z,101478.81
2023-02-19T14:04:40.991Z,101474.16
2023-02-19T14:07:07.849Z,101490.38
2023-02-19T14:09:34.480Z,101485.56
2023-02-19T14:12:18.424Z,101485.31
2023-02-19T14:14:46.966Z,101487.56
2023-02-19T14:21:50.922Z,101495.56
2023-02-19T14:28:56.419Z,101512.16
2023-02-19T14:31:29.335Z,101498.81
2023-02-19T14:34:00.300Z,101504.25
2023-02-19T14:36:30.062Z,101504.09
2023-02-19T14:39:12.923Z,101504.72
2023-02-19T14:41:45.001Z,101486.09
2023-02-19T14:44:20.038Z,101494.28
2023-02-19T14:47:15.925Z,101480.59
2023-02-19T14:49:46.077Z,101487.81
2023-02-19T14:52:26.572Z,101491.22
2023-02-19T14:54:59.625Z,101475.16
2023-02-19T14:57:40.164Z,101483.31
2023-02-19T15:00:22.348Z,101481.31
2023-02-19T15:02:51.376Z,101480.38
2023-02-19T15:05:24.155Z,101479.75
2023-02-19T15:07:53.718Z,101482.97
2023-02-19T15:10:20.868Z,101470.13
2023-02-19T15:13:01.180Z,101472.69
2023-02-19T15:15:32.511Z,101465.09
2023-02-19T15:18:02.239Z,101456.97
2023-02-19T15:20:33.196Z,101433.38
2023-02-19T15:23:01.353Z,101431.28
2023-02-19T15:25:34.859Z,101416.75
2023-02-19T15:28:23.434Z,101415.84
2023-02-19T15:30:51.246Z,101422.22
2023-02-19T15:33:20.229Z,101418.84
2023-02-19T15:36:07.550Z,101428.59
2023-02-19T15:38:34.897Z,101426.81
2023-02-19T15:41:01.984Z,101423.38
2023-02-19T15:43:32.053Z,101421.97
2023-02-19T15:46:04.434Z,101428.06
2023-02-19T15:48:38.697Z,101447.06
2023-02-19T15:51:13.707Z,101444.09
2023-02-19T15:53:58.652Z,101444.56
2023-02-19T15:56:30.634Z,101447.91
2023-02-19T15:59:04.380Z,101450.22
2023-02-19T16:01:35.839Z,101451.53
2023-02-19T16:04:03.525Z,101450.31
2023-02-19T16:06:30.652Z,101453.13
2023-02-19T16:09:03.672Z,101456.56
2023-02-19T16:11:56.696Z,101457.34
2023-02-19T16:14:37.135Z,101464.66
2023-02-19T16:17:09.789Z,101461.25
2023-02-19T16:19:47.505Z,101468.44
2023-02-19T16:22:19.487Z,101467.56
2023-02-19T16:24:49.784Z,101476.22
2023-02-19T16:27:32.785Z,101471.50
2023-02-19T16:30:07.007Z,101471.72
2023-02-19T16:32:33.841Z,101477.31
2023-02-19T16:35:00.393Z,101469.88
2023-02-19T16:37:59.705Z,101479.13
2023-02-19T16:40:44.934Z,101477.25
2023-02-19T16:43:14.772Z,101471.63
2023-02-19T16:45:42.675Z,101494.97
2023-02-19T16:48:10.290Z,101509.75
2023-02-19T16:50:41.380Z,101504.31
2023-02-19T16:53:18.618Z,101521.06
2023-02-19T16:55:45.340Z,101530.75
2023-02-19T16:58:12.072Z,101539.41
2023-02-19T17:00:38.671Z,101534.75
2023-02-19T17:03:10.244Z,101533.84
2023-02-19T17:05:38.776Z,101551.00
2023-02-19T17:08:23.089Z,101550.13
2023-02-19T17:10:50.329Z,101552.13
2023-02-19T17:13:16.885Z,101549.13
2023-02-19T17:15:43.499Z,101563.47
2023-02-19T17:18:11.933Z,101547.06
2023-02-19T17:20:40.363Z,101548.34
2023-02-19T17:23:06.970Z,101566.88
2023-02-19T17:25:33.654Z,101575.38
2023-02-19T17:28:00.156Z,101576.72
2023-02-19T17:30:32.512Z,101569.81
2023-02-19T17:32:59.341Z,101556.94
2023-02-19T17:35:26.279Z,101565.56
2023-02-19T17:37:53.527Z,101559.78
2023-02-19T17:40:38.310Z,101556.34
2023-02-19T17:43:05.589Z,101566.72
2023-02-19T17:45:32.911Z,101574.25
2023-02-19T17:47:59.893Z,101569.56
2023-02-19T17:50:30.103Z,101572.25
2023-02-19T17:52:58.694Z,101581.53
2023-02-19T17:55:26.554Z,101585.06
2023-02-19T17:57:53.692Z,101593.66
2023-02-19T18:00:26.656Z,101592.56
2023-02-19T18:02:54.906Z,101586.72
2023-02-19T18:05:22.756Z,101590.91
2023-02-19T18:07:49.982Z,101593.69
2023-02-19T18:10:18.793Z,101591.69
2023-02-19T18:12:45.563Z,101607.75
2023-02-19T18:15:21.625Z,101612.09
2023-02-19T18:17:49.024Z,101618.22
2023-02-19T18:20:28.743Z,101624.31
2023-02-19T18:22:56.424Z,101625.88
2023-02-19T18:29:59.859Z,101635.84
2023-02-19T18:32:26.593Z,101642.50
2023-02-19T18:34:56.740Z,101640.16
2023-02-19T18:37:25.138Z,101645.28
2023-02-19T18:39:53.102Z,101643.75
2023-02-19T18:42:21.616Z,101638.88
2023-02-19T18:44:49.042Z,101644.88
2023-02-19T18:47:17.452Z,101644.41
2023-02-19T18:49:52.009Z,101635.78
2023-02-19T18:52:20.580Z,101633.66
2023-02-19T18:54:48.242Z,101621.59
2023-02-19T18:57:15.430Z,101635.75
2023-02-19T18:59:43.207Z,101630.38
2023-02-19T19:02:10.755Z,101643.34
2023-02-19T19:04:38.964Z,101636.22
2023-02-19T19:07:07.272Z,101651.69
2023-02-19T19:09:34.266Z,101645.69
2023-02-19T19:12:01.595Z,101652.09
2023-02-19T19:14:28.263Z,101666.88
2023-02-19T19:16:55.101Z,101660.28
2023-02-19T19:19:21.732Z,101656.38
2023-02-19T19:21:53.566Z,101661.53
2023-02-19T19:24:22.292Z,101658.09
2023-02-19T19:26:51.352Z,101662.13
2023-02-19T19:29:20.364Z,101667.09
2023-02-19T19:31:47.522Z,101669.66
2023-02-19T19:34:14.552Z,101678.63
2023-02-19T19:36:41.115Z,101665.34
2023-02-19T19:39:09.012Z,101667.09
2023-02-19T19:41:35.599Z,101656.38
2023-02-19T19:44:04.456Z,101657.25
2023-02-19T19:46:31.571Z,101651.66
2023-02-19T19:48:58.210Z,101651.44
2023-02-19T19:51:31.260Z,101641.66
2023-02-19T19:53:58.331Z,101660.28
2023-02-19T19:56:25.124Z,101669.03
2023-02-19T19:58:51.758Z,101670.09
2023-02-19T20:01:22.319Z,101676.06
2023-02-19T20:03:50.997Z,101673.28
2023-02-19T20:06:26.841Z,101676.50
2023-02-19T20:08:53.531Z,101680.34
2023-02-19T20:11:20.621Z,101683.38
2023-02-19T20:13:47.371Z,101688.03
2023-02-19T20:16:15.015Z,101685.50
2023-02-19T20:18:41.872Z,101691.06
2023-02-19T20:21:09.642Z,101694.72
2023-02-19T20:23:39.386Z,101697.88
2023-02-19T20:26:06.802Z,101696.63
2023-02-19T20:28:33.697Z,101688.25
2023-02-19T20:31:00.425Z,101700.25
2023-02-19T20:33:27.435Z,101698.56
2023-02-19T20:35:54.314Z,101695.38
2023-02-19T20:38:21.014Z,101696.44
2023-02-19T20:40:47.874Z,101700.25
2023-02-19T20:43:14.491Z,101704.94
2023-02-19T20:45:42.979Z,101705.38
2023-02-19T20:48:09.702Z,101715.25
2023-02-19T20:50:36.357Z,101698.28
2023-02-19T20:53:03.029Z,101697.88
2023-02-19T20:55:29.883Z,101696.34
2023-02-19T20:57:56.785Z,101697.03
2023-02-19T21:00:23.491Z,101704.56
2023-02-19T21:02:50.184Z,101699.66
2023-02-19T21:05:17.729Z,101688.09
2023-02-19T21:07:44.650Z,101690.03
2023-02-19T21:10:12.254Z,101691.28
2023-02-19T21:12:39.034Z,101705.16
2023-02-19T21:15:05.904Z,101716.28
2023-02-19T21:17:32.478Z,101716.31
2023-02-19T21:19:59.119Z,101710.75
2023-02-19T21:22:25.708Z,101707.78
2023-02-19T21:24:53.067Z,101699.63
2023-02-19T21:27:20.510Z,101697.06
2023-02-19T21:29:47.630Z,101713.34
2023-02-19T21:32:14.415Z,101710.97
2023-02-19T21:34:42.373Z,101712.06
2023-02-19T21:37:09.029Z,101714.00
2023-02-19T21:39:35.686Z,101706.28
2023-02-19T21:42:02.555Z,101702.19
2023-02-19T21:44:29.333Z,101701.34
2023-02-19T21:46:58.185Z,101698.75
2023-02-19T21:49:24.797Z,101700.06
2023-02-19T21:51:52.214Z,101700.94
2023-02-19T21:54:21.929Z,101696.22
2023-02-19T21:56:48.740Z,101689.56
2023-02-19T21:59:15.811Z,101681.88
2023-02-19T22:01:43.536Z,101691.50
2023-02-19T22:04:20.098Z,101687.63
2023-02-19T22:06:47.214Z,101687.59
2023-02-19T22:09:14.509Z,101694.06
2023-02-19T22:11:41.584Z,101699.22
2023-02-19T22:14:08.828Z,101696.44
2023-02-19T22:16:35.436Z,101699.22
2023-02-19T22:19:02.133Z,101700.94
2023-02-19T22:21:32.413Z,101702.00
2023-02-19T22:24:00.347Z,101683.81
2023-02-19T22:26:32.361Z,101688.72
2023-02-19T22:28:59.650Z,101696.22
2023-02-19T22:31:28.170Z,101697.28
2023-02-19T22:33:56.210Z,101692.50
2023-02-19T22:36:26.024Z,101705.97
2023-02-19T22:38:52.845Z,101698.06
2023-02-19T22:41:20.854Z,101702.78
2023-02-19T22:43:48.107Z,101700.66
2023-02-19T22:46:17.580Z,101706.34
2023-02-19T22:48:44.542Z,101692.19
2023-02-19T22:51:17.500Z,101687.69
2023-02-19T22:53:45.117Z,101693.47
2023-02-19T22:56:13.292Z,101702.19
2023-02-19T22:58:41.036Z,101704.56
2023-02-19T23:01:08.109Z,101705.88
2023-02-19T23:03:34.822Z,101699.53
2023-02-19T23:06:04.867Z,101705.34
2023-02-19T23:08:31.423Z,101693.97
2023-02-19T23:10:57.942Z,101710.47
2023-02-19T23:13:24.493Z,101706.41
2023-02-19T23:15:51.046Z,101701.47
2023-02-19T23:18:17.578Z,101706.03
2023-02-19T23:20:44.193Z,101701.78
2023-02-19T23:23:10.922Z,101697.28
2023-02-19T23:25:37.472Z,101702.00
2023-02-19T23:28:04.366Z,101697.94
2023-02-19T23:30:31.111Z,101695.78
2023-02-19T23:32:57.858Z,101691.53
2023-02-19T23:35:24.429Z,101691.97
2023-02-19T23:37:50.992Z,101697.53
2023-02-19T23:40:18.935Z,101685.75
2023-02-19T23:42:45.507Z,101699.66
2023-02-19T23:45:12.260Z,101683.16
2023-02-19T23:47:38.898Z,101679.91
2023-02-19T23:50:05.930Z,101679.94
2023-02-19T23:52:32.562Z,101688.03
2023-02-19T23:54:59.102Z,101678.59
2023-02-19T23:57:25.650Z,101680.31
2023-02-19T23:59:52.310Z,101671.72
